sensor_id;sensor_type;location;lat;lon;timestamp;temperature;humidity
4518;DHT22;2271;49.464;11.070;2024-02-14T00:02:11;6.00;99.90
4518;DHT22;2271;49.464;11.070;2024-02-14T00:04:37;5.90;99.90
4518;DHT22;2271;49.464;11.070;2024-02-14T00:07:04;5.90;99.90
4518;DHT22;2271;49.464;11.070;2024-02-14T00:09:30;5.80;99.90
4518;DHT22;2271;49.464;11.070;2024-02-14T00:11:56;5.80;99.90
4518;DHT22;2271;49.464;11.070;2024-02-14T00:14:21;5.70;99.90
4518;DHT22;2271;49.464;11.070;2024-02-14T00:16:47;5.70;99.90
4518;DHT22;2271;49.464;11.070;2024-02-14T00:19:13;5.70;99.90
4518;DHT22;2271;49.464;11.070;2024-02-14T00:21:39;5.70;99.90
4518;DHT22;2271;49.464;11.070;2024-02-14T00:24:05;5.60;99.90
4518;DHT22;2271;49.464;11.070;2024-02-14T00:26:31;5.60;99.90
4518;DHT22;2271;49.464;11.070;2024-02-14T00:28:57;5.70;99.90
4518;DHT22;2271;49.464;11.070;2024-02-14T00:31:22;5.70;99.90
4518;DHT22;2271;49.464;11.070;2024-02-14T00:33:48;5.60;99.90
4518;DHT22;2271;49.464;11.070;2024-02-14T00:36:14;5.60;99.90
4518;DHT22;2271;49.464;11.070;2024-02-14T00:38:40;5.60;99.90
4518;DHT22;2271;49.464;11.070;2024-02-14T00:41:05;5.60;99.90
4518;DHT22;2271;49.464;11.070;2024-02-14T00:43:31;5.60;99.90
4518;DHT22;2271;49.464;11.070;2024-02-14T00:45:57;5.60;99.90
4518;DHT22;2271;49.464;11.070;2024-02-14T00:48:23;5.60;99.90
4518;DHT22;2271;49.464;11.070;2024-02-14T00:50:48;5.70;99.90
4518;DHT22;2271;49.464;11.070;2024-02-14T00:53:14;5.70;99.90
4518;DHT22;2271;49.464;11.070;2024-02-14T00:55:40;5.70;99.90
4518;DHT22;2271;49.464;11.070;2024-02-14T00:58:06;5.70;99.90
4518;DHT22;2271;49.464;11.070;2024-02-14T01:00:31;5.70;99.90
4518;DHT22;2271;49.464;11.070;2024-02-14T01:02:57;5.70;99.90
4518;DHT22;2271;49.464;11.070;2024-02-14T01:05:24;5.70;99.90
4518;DHT22;2271;49.464;11.070;2024-02-14T01:07:49;5.70;99.90
4518;DHT22;2271;49.464;11.070;2024-02-14T01:10:15;5.70;99.90
4518;DHT22;2271;49.464;11.070;2024-02-14T01:12:41;5.70;99.90
4518;DHT22;2271;49.464;11.070;2024-02-14T01:15:07;5.70;99.90
4518;DHT22;2271;49.464;11.070;2024-02-14T01:17:33;5.70;99.90
4518;DHT22;2271;49.464;11.070;2024-02-14T01:20:02;5.70;99.90
4518;DHT22;2271;49.464;11.070;2024-02-14T01:22:28;5.70;99.90
4518;DHT22;2271;49.464;11.070;2024-02-14T01:24:54;5.70;99.90
4518;DHT22;2271;49.464;11.070;2024-02-14T01:27:20;5.70;99.90
4518;DHT22;2271;49.464;11.070;2024-02-14T01:29:48;5.70;99.90
4518;DHT22;2271;49.464;11.070;2024-02-14T01:32:14;5.60;99.90
4518;DHT22;2271;49.464;11.070;2024-02-14T01:34:39;5.60;99.90
4518;DHT22;2271;49.464;11.070;2024-02-14T01:37:06;5.60;99.90
4518;DHT22;2271;49.464;11.070;2024-02-14T01:39:32;5.60;99.90
4518;DHT22;2271;49.464;11.070;2024-02-14T01:41:57;5.50;99.90
4518;DHT22;2271;49.464;11.070;2024-02-14T01:44:23;5.40;99.90
4518;DHT22;2271;49.464;11.070;2024-02-14T01:46:49;5.40;99.90
4518;DHT22;2271;49.464;11.070;2024-02-14T01:49:15;5.40;99.90
4518;DHT22;2271;49.464;11.070;2024-02-14T01:51:43;5.40;99.90
4518;DHT22;2271;49.464;11.070;2024-02-14T01:54:11;5.50;99.90
4518;DHT22;2271;49.464;11.070;2024-02-14T01:56:38;5.50;99.90
4518;DHT22;2271;49.464;11.070;2024-02-14T01:59:05;5.50;99.90
4518;DHT22;2271;49.464;11.070;2024-02-14T02:01:32;5.50;99.90
4518;DHT22;2271;49.464;11.070;2024-02-14T02:03:59;5.50;99.90
4518;DHT22;2271;49.464;11.070;2024-02-14T02:06:25;5.50;99.90
4518;DHT22;2271;49.464;11.070;2024-02-14T02:08:51;5.40;99.90
4518;DHT22;2271;49.464;11.070;2024-02-14T02:11:17;5.40;99.90
4518;DHT22;2271;49.464;11.070;2024-02-14T02:13:43;5.50;99.90
4518;DHT22;2271;49.464;11.070;2024-02-14T02:16:09;5.50;99.90
4518;DHT22;2271;49.464;11.070;2024-02-14T02:18:35;5.50;99.90
4518;DHT22;2271;49.464;11.070;2024-02-14T02:21:01;5.50;99.90
4518;DHT22;2271;49.464;11.070;2024-02-14T02:23:29;5.60;99.90
4518;DHT22;2271;49.464;11.070;2024-02-14T02:25:56;5.70;99.90
4518;DHT22;2271;49.464;11.070;2024-02-14T02:28:22;5.60;99.90
4518;DHT22;2271;49.464;11.070;2024-02-14T02:30:49;5.60;99.90
4518;DHT22;2271;49.464;11.070;2024-02-14T02:33:14;5.60;99.90
4518;DHT22;2271;49.464;11.070;2024-02-14T02:35:41;5.60;99.90
4518;DHT22;2271;49.464;11.070;2024-02-14T02:38:07;5.60;99.90
4518;DHT22;2271;49.464;11.070;2024-02-14T02:40:33;5.50;99.90
4518;DHT22;2271;49.464;11.070;2024-02-14T02:42:59;5.60;99.90
4518;DHT22;2271;49.464;11.070;2024-02-14T02:45:25;5.60;99.90
4518;DHT22;2271;49.464;11.070;2024-02-14T02:47:51;5.50;99.90
4518;DHT22;2271;49.464;11.070;2024-02-14T02:50:17;5.50;99.90
4518;DHT22;2271;49.464;11.070;2024-02-14T02:52:43;5.50;99.90
4518;DHT22;2271;49.464;11.070;2024-02-14T02:55:09;5.60;99.90
4518;DHT22;2271;49.464;11.070;2024-02-14T02:57:35;5.60;99.90
4518;DHT22;2271;49.464;11.070;2024-02-14T03:00:03;5.60;99.90
4518;DHT22;2271;49.464;11.070;2024-02-14T03:02:33;5.60;99.90
4518;DHT22;2271;49.464;11.070;2024-02-14T03:04:59;5.60;99.90
4518;DHT22;2271;49.464;11.070;2024-02-14T03:07:25;5.60;99.90
4518;DHT22;2271;49.464;11.070;2024-02-14T03:09:51;5.50;99.90
4518;DHT22;2271;49.464;11.070;2024-02-14T03:12:17;5.40;99.90
4518;DHT22;2271;49.464;11.070;2024-02-14T03:14:44;5.30;99.90
4518;DHT22;2271;49.464;11.070;2024-02-14T03:17:09;5.40;99.90
4518;DHT22;2271;49.464;11.070;2024-02-14T03:19:35;5.30;99.90
4518;DHT22;2271;49.464;11.070;2024-02-14T03:22:04;5.30;99.90
4518;DHT22;2271;49.464;11.070;2024-02-14T03:24:31;5.30;99.90
4518;DHT22;2271;49.464;11.070;2024-02-14T03:26:56;5.40;99.90
4518;DHT22;2271;49.464;11.070;2024-02-14T03:29:22;5.40;99.90
4518;DHT22;2271;49.464;11.070;2024-02-14T03:31:48;5.40;99.90
4518;DHT22;2271;49.464;11.070;2024-02-14T03:34:14;5.40;99.90
4518;DHT22;2271;49.464;11.070;2024-02-14T03:36:40;5.40;99.90
4518;DHT22;2271;49.464;11.070;2024-02-14T03:39:06;5.40;99.90
4518;DHT22;2271;49.464;11.070;2024-02-14T03:41:32;5.40;99.90
4518;DHT22;2271;49.464;11.070;2024-02-14T03:43:58;5.40;99.90
4518;DHT22;2271;49.464;11.070;2024-02-14T03:46:27;5.40;99.90
4518;DHT22;2271;49.464;11.070;2024-02-14T03:48:54;5.40;99.90
4518;DHT22;2271;49.464;11.070;2024-02-14T03:51:19;5.50;99.90
4518;DHT22;2271;49.464;11.070;2024-02-14T03:53:46;5.50;99.90
4518;DHT22;2271;49.464;11.070;2024-02-14T03:56:11;5.50;99.90
4518;DHT22;2271;49.464;11.070;2024-02-14T03:58:39;5.40;99.90
4518;DHT22;2271;49.464;11.070;2024-02-14T04:01:05;5.50;99.90
4518;DHT22;2271;49.464;11.070;2024-02-14T04:03:31;5.50;99.90
4518;DHT22;2271;49.464;11.070;2024-02-14T04:05:56;5.50;99.90
4518;DHT22;2271;49.464;11.070;2024-02-14T04:08:23;5.60;99.90
4518;DHT22;2271;49.464;11.070;2024-02-14T04:10:48;5.60;99.90
4518;DHT22;2271;49.464;11.070;2024-02-14T04:13:16;5.50;99.90
4518;DHT22;2271;49.464;11.070;2024-02-14T04:15:42;5.40;99.90
4518;DHT22;2271;49.464;11.070;2024-02-14T04:18:08;5.40;99.90
4518;DHT22;2271;49.464;11.070;2024-02-14T04:20:34;5.30;99.90
4518;DHT22;2271;49.464;11.070;2024-02-14T04:23:00;5.20;99.90
4518;DHT22;2271;49.464;11.070;2024-02-14T04:25:26;5.20;99.90
4518;DHT22;2271;49.464;11.070;2024-02-14T04:27:51;5.20;99.90
4518;DHT22;2271;49.464;11.070;2024-02-14T04:30:17;5.30;99.90
4518;DHT22;2271;49.464;11.070;2024-02-14T04:32:42;5.20;99.90
4518;DHT22;2271;49.464;11.070;2024-02-14T04:35:09;5.30;99.90
4518;DHT22;2271;49.464;11.070;2024-02-14T04:37:35;5.20;99.90
4518;DHT22;2271;49.464;11.070;2024-02-14T04:40:02;5.20;99.90
4518;DHT22;2271;49.464;11.070;2024-02-14T04:42:29;5.30;99.90
4518;DHT22;2271;49.464;11.070;2024-02-14T04:44:55;5.40;99.90
4518;DHT22;2271;49.464;11.070;2024-02-14T04:47:21;5.40;99.90
4518;DHT22;2271;49.464;11.070;2024-02-14T04:49:46;5.40;99.90
4518;DHT22;2271;49.464;11.070;2024-02-14T04:52:12;5.50;99.90
4518;DHT22;2271;49.464;11.070;2024-02-14T04:54:38;5.50;99.90
4518;DHT22;2271;49.464;11.070;2024-02-14T04:57:03;5.60;99.90
4518;DHT22;2271;49.464;11.070;2024-02-14T04:59:30;5.60;99.90
4518;DHT22;2271;49.464;11.070;2024-02-14T05:01:55;5.60;99.90
4518;DHT22;2271;49.464;11.070;2024-02-14T05:04:22;5.60;99.90
4518;DHT22;2271;49.464;11.070;2024-02-14T05:06:48;5.40;99.90
4518;DHT22;2271;49.464;11.070;2024-02-14T05:09:14;5.60;99.90
4518;DHT22;2271;49.464;11.070;2024-02-14T05:11:41;5.60;99.90
4518;DHT22;2271;49.464;11.070;2024-02-14T05:14:07;5.60;99.90
4518;DHT22;2271;49.464;11.070;2024-02-14T05:16:32;5.70;99.90
4518;DHT22;2271;49.464;11.070;2024-02-14T05:18:58;5.60;99.90
4518;DHT22;2271;49.464;11.070;2024-02-14T05:21:24;5.60;99.90
4518;DHT22;2271;49.464;11.070;2024-02-14T05:23:50;5.60;99.90
4518;DHT22;2271;49.464;11.070;2024-02-14T05:26:16;5.60;99.90
4518;DHT22;2271;49.464;11.070;2024-02-14T05:28:41;5.70;99.90
4518;DHT22;2271;49.464;11.070;2024-02-14T05:31:07;5.60;99.90
4518;DHT22;2271;49.464;11.070;2024-02-14T05:33:33;5.70;99.90
4518;DHT22;2271;49.464;11.070;2024-02-14T05:35:59;5.90;99.90
4518;DHT22;2271;49.464;11.070;2024-02-14T05:38:24;5.90;99.90
4518;DHT22;2271;49.464;11.070;2024-02-14T05:40:50;5.90;99.90
4518;DHT22;2271;49.464;11.070;2024-02-14T05:43:16;5.90;99.90
4518;DHT22;2271;49.464;11.070;2024-02-14T05:45:44;6.00;99.90
4518;DHT22;2271;49.464;11.070;2024-02-14T05:48:10;6.10;99.90
4518;DHT22;2271;49.464;11.070;2024-02-14T05:50:36;6.10;99.90
4518;DHT22;2271;49.464;11.070;2024-02-14T05:53:02;6.00;99.90
4518;DHT22;2271;49.464;11.070;2024-02-14T05:55:28;6.10;99.90
4518;DHT22;2271;49.464;11.070;2024-02-14T05:57:54;6.10;99.90
4518;DHT22;2271;49.464;11.070;2024-02-14T06:00:20;6.10;99.90
4518;DHT22;2271;49.464;11.070;2024-02-14T06:02:49;6.10;99.90
4518;DHT22;2271;49.464;11.070;2024-02-14T06:05:16;6.00;99.90
4518;DHT22;2271;49.464;11.070;2024-02-14T06:07:42;6.00;99.90
4518;DHT22;2271;49.464;11.070;2024-02-14T06:10:10;6.00;99.90
4518;DHT22;2271;49.464;11.070;2024-02-14T06:12:36;6.00;99.90
4518;DHT22;2271;49.464;11.070;2024-02-14T06:15:02;6.00;99.90
4518;DHT22;2271;49.464;11.070;2024-02-14T06:17:28;6.00;99.90
4518;DHT22;2271;49.464;11.070;2024-02-14T06:19:54;6.00;99.90
4518;DHT22;2271;49.464;11.070;2024-02-14T06:22:20;6.00;99.90
4518;DHT22;2271;49.464;11.070;2024-02-14T06:24:46;6.00;99.90
4518;DHT22;2271;49.464;11.070;2024-02-14T06:27:15;6.10;99.90
4518;DHT22;2271;49.464;11.070;2024-02-14T06:29:44;6.10;99.90
4518;DHT22;2271;49.464;11.070;2024-02-14T06:32:12;6.10;99.90
4518;DHT22;2271;49.464;11.070;2024-02-14T06:34:38;6.10;99.90
4518;DHT22;2271;49.464;11.070;2024-02-14T06:37:03;6.00;99.90
4518;DHT22;2271;49.464;11.070;2024-02-14T06:39:29;5.90;99.90
4518;DHT22;2271;49.464;11.070;2024-02-14T06:41:55;5.90;99.90
4518;DHT22;2271;49.464;11.070;2024-02-14T06:44:23;5.90;99.90
4518;DHT22;2271;49.464;11.070;2024-02-14T06:46:48;5.90;99.90
4518;DHT22;2271;49.464;11.070;2024-02-14T06:49:15;5.90;99.90
4518;DHT22;2271;49.464;11.070;2024-02-14T06:51:41;6.00;99.90
4518;DHT22;2271;49.464;11.070;2024-02-14T06:54:07;6.00;99.90
4518;DHT22;2271;49.464;11.070;2024-02-14T06:56:33;6.00;99.90
4518;DHT22;2271;49.464;11.070;2024-02-14T06:58:59;6.00;99.90
4518;DHT22;2271;49.464;11.070;2024-02-14T07:01:26;6.00;99.90
4518;DHT22;2271;49.464;11.070;2024-02-14T07:03:52;6.00;99.90
4518;DHT22;2271;49.464;11.070;2024-02-14T07:06:18;6.00;99.90
4518;DHT22;2271;49.464;11.070;2024-02-14T07:08:44;6.00;99.90
4518;DHT22;2271;49.464;11.070;2024-02-14T07:11:10;6.00;99.90
4518;DHT22;2271;49.464;11.070;2024-02-14T07:13:35;6.00;99.90
4518;DHT22;2271;49.464;11.070;2024-02-14T07:16:01;6.00;99.90
4518;DHT22;2271;49.464;11.070;2024-02-14T07:18:26;6.00;99.90
4518;DHT22;2271;49.464;11.070;2024-02-14T07:20:52;6.00;99.90
4518;DHT22;2271;49.464;11.070;2024-02-14T07:23:21;6.00;99.90
4518;DHT22;2271;49.464;11.070;2024-02-14T07:25:46;6.10;99.90
4518;DHT22;2271;49.464;11.070;2024-02-14T07:28:12;6.10;99.90
4518;DHT22;2271;49.464;11.070;2024-02-14T07:30:38;6.10;99.90
4518;DHT22;2271;49.464;11.070;2024-02-14T07:33:03;6.20;99.90
4518;DHT22;2271;49.464;11.070;2024-02-14T07:35:29;6.20;99.90
4518;DHT22;2271;49.464;11.070;2024-02-14T07:37:55;6.20;99.90
4518;DHT22;2271;49.464;11.070;2024-02-14T07:40:22;6.30;99.90
4518;DHT22;2271;49.464;11.070;2024-02-14T07:42:48;6.30;99.90
4518;DHT22;2271;49.464;11.070;2024-02-14T07:45:13;6.40;99.90
4518;DHT22;2271;49.464;11.070;2024-02-14T07:47:39;6.50;99.90
4518;DHT22;2271;49.464;11.070;2024-02-14T07:50:08;6.50;99.90
4518;DHT22;2271;49.464;11.070;2024-02-14T07:52:34;6.60;99.90
4518;DHT22;2271;49.464;11.070;2024-02-14T07:55:01;6.60;99.90
4518;DHT22;2271;49.464;11.070;2024-02-14T07:57:27;6.60;99.90
4518;DHT22;2271;49.464;11.070;2024-02-14T07:59:53;6.60;99.90
4518;DHT22;2271;49.464;11.070;2024-02-14T08:02:19;6.60;99.90
4518;DHT22;2271;49.464;11.070;2024-02-14T08:04:45;6.60;99.90
4518;DHT22;2271;49.464;11.070;2024-02-14T08:07:11;6.60;99.90
4518;DHT22;2271;49.464;11.070;2024-02-14T08:09:36;6.60;99.90
4518;DHT22;2271;49.464;11.070;2024-02-14T08:12:04;6.60;99.90
4518;DHT22;2271;49.464;11.070;2024-02-14T08:14:30;6.60;99.90
4518;DHT22;2271;49.464;11.070;2024-02-14T08:16:56;6.60;99.90
4518;DHT22;2271;49.464;11.070;2024-02-14T08:19:21;6.60;99.90
4518;DHT22;2271;49.464;11.070;2024-02-14T08:21:47;6.70;99.90
4518;DHT22;2271;49.464;11.070;2024-02-14T08:24:12;6.70;99.90
4518;DHT22;2271;49.464;11.070;2024-02-14T08:26:38;6.70;99.90
4518;DHT22;2271;49.464;11.070;2024-02-14T08:29:03;6.60;99.90
4518;DHT22;2271;49.464;11.070;2024-02-14T08:31:29;6.60;99.90
4518;DHT22;2271;49.464;11.070;2024-02-14T08:33:56;6.60;99.90
4518;DHT22;2271;49.464;11.070;2024-02-14T08:36:22;6.80;99.90
4518;DHT22;2271;49.464;11.070;2024-02-14T08:38:47;6.90;99.90
4518;DHT22;2271;49.464;11.070;2024-02-14T08:41:13;6.90;99.90
4518;DHT22;2271;49.464;11.070;2024-02-14T08:43:39;6.90;99.90
4518;DHT22;2271;49.464;11.070;2024-02-14T08:46:10;6.90;99.90
4518;DHT22;2271;49.464;11.070;2024-02-14T08:48:37;6.90;99.90
4518;DHT22;2271;49.464;11.070;2024-02-14T08:51:07;6.90;99.90
4518;DHT22;2271;49.464;11.070;2024-02-14T08:53:34;6.80;99.90
4518;DHT22;2271;49.464;11.070;2024-02-14T08:56:00;6.90;99.90
4518;DHT22;2271;49.464;11.070;2024-02-14T08:58:25;6.90;99.90
4518;DHT22;2271;49.464;11.070;2024-02-14T09:00:51;7.00;99.90
4518;DHT22;2271;49.464;11.070;2024-02-14T09:03:19;7.10;99.90
4518;DHT22;2271;49.464;11.070;2024-02-14T09:05:45;7.20;99.90
4518;DHT22;2271;49.464;11.070;2024-02-14T09:08:12;7.10;99.90
4518;DHT22;2271;49.464;11.070;2024-02-14T09:10:38;7.10;99.90
4518;DHT22;2271;49.464;11.070;2024-02-14T09:13:04;7.10;99.90
4518;DHT22;2271;49.464;11.070;2024-02-14T09:15:30;7.10;99.90
4518;DHT22;2271;49.464;11.070;2024-02-14T09:17:56;7.10;99.90
4518;DHT22;2271;49.464;11.070;2024-02-14T09:20:22;7.20;99.90
4518;DHT22;2271;49.464;11.070;2024-02-14T09:22:48;7.20;99.90
4518;DHT22;2271;49.464;11.070;2024-02-14T09:25:14;7.30;99.90
4518;DHT22;2271;49.464;11.070;2024-02-14T09:27:40;7.50;99.90
4518;DHT22;2271;49.464;11.070;2024-02-14T09:30:07;7.60;99.90
4518;DHT22;2271;49.464;11.070;2024-02-14T09:32:33;7.90;99.90
4518;DHT22;2271;49.464;11.070;2024-02-14T09:34:59;8.00;99.90
4518;DHT22;2271;49.464;11.070;2024-02-14T09:37:26;8.10;99.90
4518;DHT22;2271;49.464;11.070;2024-02-14T09:39:52;8.20;99.90
4518;DHT22;2271;49.464;11.070;2024-02-14T09:42:24;8.20;99.90
4518;DHT22;2271;49.464;11.070;2024-02-14T09:44:54;8.20;99.90
4518;DHT22;2271;49.464;11.070;2024-02-14T09:47:23;8.10;99.90
4518;DHT22;2271;49.464;11.070;2024-02-14T09:49:51;8.10;99.90
4518;DHT22;2271;49.464;11.070;2024-02-14T09:52:17;8.10;99.90
4518;DHT22;2271;49.464;11.070;2024-02-14T09:54:46;8.10;99.90
4518;DHT22;2271;49.464;11.070;2024-02-14T09:57:13;8.20;99.90
4518;DHT22;2271;49.464;11.070;2024-02-14T09:59:41;8.20;99.90
4518;DHT22;2271;49.464;11.070;2024-02-14T10:02:07;8.30;99.90
4518;DHT22;2271;49.464;11.070;2024-02-14T10:04:35;8.30;99.90
4518;DHT22;2271;49.464;11.070;2024-02-14T10:07:03;8.30;99.90
4518;DHT22;2271;49.464;11.070;2024-02-14T10:09:30;8.30;99.90
4518;DHT22;2271;49.464;11.070;2024-02-14T10:11:56;8.30;99.90
4518;DHT22;2271;49.464;11.070;2024-02-14T10:14:25;8.30;99.90
4518;DHT22;2271;49.464;11.070;2024-02-14T10:16:51;8.30;99.90
4518;DHT22;2271;49.464;11.070;2024-02-14T10:19:17;8.40;99.90
4518;DHT22;2271;49.464;11.070;2024-02-14T10:21:43;8.40;99.90
4518;DHT22;2271;49.464;11.070;2024-02-14T10:24:09;8.50;99.90
4518;DHT22;2271;49.464;11.070;2024-02-14T10:26:37;8.50;99.90
4518;DHT22;2271;49.464;11.070;2024-02-14T10:29:03;8.60;99.90
4518;DHT22;2271;49.464;11.070;2024-02-14T10:31:28;8.60;99.90
4518;DHT22;2271;49.464;11.070;2024-02-14T10:33:55;8.70;99.90
4518;DHT22;2271;49.464;11.070;2024-02-14T10:36:21;8.70;99.90
4518;DHT22;2271;49.464;11.070;2024-02-14T10:38:47;8.70;99.90
4518;DHT22;2271;49.464;11.070;2024-02-14T10:41:16;8.70;99.90
4518;DHT22;2271;49.464;11.070;2024-02-14T10:43:42;8.80;99.90
4518;DHT22;2271;49.464;11.070;2024-02-14T10:46:20;8.90;99.90
4518;DHT22;2271;49.464;11.070;2024-02-14T10:48:47;9.10;99.90
4518;DHT22;2271;49.464;11.070;2024-02-14T10:51:15;9.20;99.90
4518;DHT22;2271;49.464;11.070;2024-02-14T10:53:44;9.20;99.90
4518;DHT22;2271;49.464;11.070;2024-02-14T10:56:16;9.30;99.90
4518;DHT22;2271;49.464;11.070;2024-02-14T10:58:48;9.30;99.90
4518;DHT22;2271;49.464;11.070;2024-02-14T11:01:14;9.30;99.90
4518;DHT22;2271;49.464;11.070;2024-02-14T11:03:42;9.30;99.90
4518;DHT22;2271;49.464;11.070;2024-02-14T11:06:08;9.30;99.90
4518;DHT22;2271;49.464;11.070;2024-02-14T11:08:34;9.40;99.90
4518;DHT22;2271;49.464;11.070;2024-02-14T11:11:01;9.40;99.90
4518;DHT22;2271;49.464;11.070;2024-02-14T11:13:30;9.40;99.90
4518;DHT22;2271;49.464;11.070;2024-02-14T11:16:02;9.40;99.90
4518;DHT22;2271;49.464;11.070;2024-02-14T11:18:30;9.50;99.90
4518;DHT22;2271;49.464;11.070;2024-02-14T11:20:56;9.50;99.90
4518;DHT22;2271;49.464;11.070;2024-02-14T11:23:23;9.50;99.90
4518;DHT22;2271;49.464;11.070;2024-02-14T11:25:49;9.50;99.90
4518;DHT22;2271;49.464;11.070;2024-02-14T11:28:16;9.50;99.90
4518;DHT22;2271;49.464;11.070;2024-02-14T11:30:43;9.60;99.90
4518;DHT22;2271;49.464;11.070;2024-02-14T11:33:13;9.70;99.90
4518;DHT22;2271;49.464;11.070;2024-02-14T11:35:43;9.70;99.90
4518;DHT22;2271;49.464;11.070;2024-02-14T11:38:09;9.70;99.90
4518;DHT22;2271;49.464;11.070;2024-02-14T11:40:36;9.80;99.90
4518;DHT22;2271;49.464;11.070;2024-02-14T11:43:04;9.90;99.90
4518;DHT22;2271;49.464;11.070;2024-02-14T11:45:30;9.90;99.90
4518;DHT22;2271;49.464;11.070;2024-02-14T11:47:56;10.00;99.90
4518;DHT22;2271;49.464;11.070;2024-02-14T11:50:21;10.10;99.90
4518;DHT22;2271;49.464;11.070;2024-02-14T11:52:47;10.20;99.90
4518;DHT22;2271;49.464;11.070;2024-02-14T11:55:13;10.20;99.90
4518;DHT22;2271;49.464;11.070;2024-02-14T11:57:42;10.30;99.90
4518;DHT22;2271;49.464;11.070;2024-02-14T12:00:08;10.30;99.90
4518;DHT22;2271;49.464;11.070;2024-02-14T12:02:34;10.30;99.90
4518;DHT22;2271;49.464;11.070;2024-02-14T12:05:01;10.40;99.90
4518;DHT22;2271;49.464;11.070;2024-02-14T12:07:30;10.50;99.90
4518;DHT22;2271;49.464;11.070;2024-02-14T12:09:56;10.50;99.90
4518;DHT22;2271;49.464;11.070;2024-02-14T12:12:22;10.50;99.90
4518;DHT22;2271;49.464;11.070;2024-02-14T12:14:52;10.50;99.90
4518;DHT22;2271;49.464;11.070;2024-02-14T12:17:17;10.40;99.90
4518;DHT22;2271;49.464;11.070;2024-02-14T12:19:47;10.40;99.90
4518;DHT22;2271;49.464;11.070;2024-02-14T12:22:15;10.40;99.90
4518;DHT22;2271;49.464;11.070;2024-02-14T12:24:46;10.30;99.90
4518;DHT22;2271;49.464;11.070;2024-02-14T12:27:16;10.40;99.90
4518;DHT22;2271;49.464;11.070;2024-02-14T12:29:45;10.40;99.90
4518;DHT22;2271;49.464;11.070;2024-02-14T12:32:10;10.40;99.90
4518;DHT22;2271;49.464;11.070;2024-02-14T12:34:37;10.40;99.90
4518;DHT22;2271;49.464;11.070;2024-02-14T12:37:03;10.40;99.90
4518;DHT22;2271;49.464;11.070;2024-02-14T12:39:29;10.40;99.90
4518;DHT22;2271;49.464;11.070;2024-02-14T12:41:55;10.50;99.90
4518;DHT22;2271;49.464;11.070;2024-02-14T12:44:21;10.50;99.90
4518;DHT22;2271;49.464;11.070;2024-02-14T12:46:46;10.50;99.90
4518;DHT22;2271;49.464;11.070;2024-02-14T12:49:12;10.50;99.90
4518;DHT22;2271;49.464;11.070;2024-02-14T12:51:39;10.60;99.90
4518;DHT22;2271;49.464;11.070;2024-02-14T12:54:05;10.60;99.90
4518;DHT22;2271;49.464;11.070;2024-02-14T12:56:32;10.60;99.90
4518;DHT22;2271;49.464;11.070;2024-02-14T12:58:58;10.60;99.90
4518;DHT22;2271;49.464;11.070;2024-02-14T13:01:25;10.60;99.90
4518;DHT22;2271;49.464;11.070;2024-02-14T13:03:50;10.60;99.90
4518;DHT22;2271;49.464;11.070;2024-02-14T13:06:16;10.60;99.90
4518;DHT22;2271;49.464;11.070;2024-02-14T13:08:42;10.60;99.90
4518;DHT22;2271;49.464;11.070;2024-02-14T13:11:07;10.50;99.90
4518;DHT22;2271;49.464;11.070;2024-02-14T13:13:36;10.60;99.90
4518;DHT22;2271;49.464;11.070;2024-02-14T13:16:02;10.60;99.90
4518;DHT22;2271;49.464;11.070;2024-02-14T13:18:27;10.60;99.90
4518;DHT22;2271;49.464;11.070;2024-02-14T13:20:53;10.60;99.90
4518;DHT22;2271;49.464;11.070;2024-02-14T13:23:25;10.60;99.90
4518;DHT22;2271;49.464;11.070;2024-02-14T13:25:51;10.50;99.90
4518;DHT22;2271;49.464;11.070;2024-02-14T13:28:17;10.60;99.90
4518;DHT22;2271;49.464;11.070;2024-02-14T13:30:42;10.60;99.90
4518;DHT22;2271;49.464;11.070;2024-02-14T13:33:09;10.60;99.90
4518;DHT22;2271;49.464;11.070;2024-02-14T13:35:37;10.60;99.90
4518;DHT22;2271;49.464;11.070;2024-02-14T13:38:04;10.60;99.90
4518;DHT22;2271;49.464;11.070;2024-02-14T13:40:31;10.60;99.90
4518;DHT22;2271;49.464;11.070;2024-02-14T13:42:57;10.70;99.90
4518;DHT22;2271;49.464;11.070;2024-02-14T13:45:23;10.60;99.90
4518;DHT22;2271;49.464;11.070;2024-02-14T13:47:49;10.60;99.90
4518;DHT22;2271;49.464;11.070;2024-02-14T13:50:14;10.60;99.90
4518;DHT22;2271;49.464;11.070;2024-02-14T13:52:40;10.60;99.90
4518;DHT22;2271;49.464;11.070;2024-02-14T13:55:06;10.70;99.90
4518;DHT22;2271;49.464;11.070;2024-02-14T13:57:38;10.60;99.90
4518;DHT22;2271;49.464;11.070;2024-02-14T14:00:06;10.60;99.90
4518;DHT22;2271;49.464;11.070;2024-02-14T14:02:35;10.70;99.90
4518;DHT22;2271;49.464;11.070;2024-02-14T14:05:06;10.70;99.90
4518;DHT22;2271;49.464;11.070;2024-02-14T14:07:40;10.70;99.90
4518;DHT22;2271;49.464;11.070;2024-02-14T14:10:08;10.70;99.90
4518;DHT22;2271;49.464;11.070;2024-02-14T14:12:34;10.70;99.90
4518;DHT22;2271;49.464;11.070;2024-02-14T14:15:01;10.70;99.90
4518;DHT22;2271;49.464;11.070;2024-02-14T14:17:27;10.70;99.90
4518;DHT22;2271;49.464;11.070;2024-02-14T14:19:53;10.70;99.90
4518;DHT22;2271;49.464;11.070;2024-02-14T14:22:19;10.70;99.90
4518;DHT22;2271;49.464;11.070;2024-02-14T14:24:44;10.60;99.90
4518;DHT22;2271;49.464;11.070;2024-02-14T14:27:10;10.60;99.90
4518;DHT22;2271;49.464;11.070;2024-02-14T14:29:45;10.60;99.90
4518;DHT22;2271;49.464;11.070;2024-02-14T14:32:11;10.60;99.90
4518;DHT22;2271;49.464;11.070;2024-02-14T14:34:36;10.60;99.90
4518;DHT22;2271;49.464;11.070;2024-02-14T14:37:02;10.70;99.90
4518;DHT22;2271;49.464;11.070;2024-02-14T14:39:29;10.70;99.90
4518;DHT22;2271;49.464;11.070;2024-02-14T14:41:56;10.70;99.90
4518;DHT22;2271;49.464;11.070;2024-02-14T14:44:24;10.70;99.90
4518;DHT22;2271;49.464;11.070;2024-02-14T14:46:50;10.70;99.90
4518;DHT22;2271;49.464;11.070;2024-02-14T14:49:16;10.70;99.90
4518;DHT22;2271;49.464;11.070;2024-02-14T14:51:42;10.60;99.90
4518;DHT22;2271;49.464;11.070;2024-02-14T14:54:08;10.70;99.90
4518;DHT22;2271;49.464;11.070;2024-02-14T14:56:33;10.60;99.90
4518;DHT22;2271;49.464;11.070;2024-02-14T14:58:59;10.60;99.90
4518;DHT22;2271;49.464;11.070;2024-02-14T15:01:31;10.60;99.90
4518;DHT22;2271;49.464;11.070;2024-02-14T15:03:59;10.60;99.90
4518;DHT22;2271;49.464;11.070;2024-02-14T15:06:25;10.60;99.90
4518;DHT22;2271;49.464;11.070;2024-02-14T15:08:50;10.60;99.90
4518;DHT22;2271;49.464;11.070;2024-02-14T15:11:16;10.80;99.90
4518;DHT22;2271;49.464;11.070;2024-02-14T15:13:43;10.80;99.90
4518;DHT22;2271;49.464;11.070;2024-02-14T15:16:10;10.70;99.90
4518;DHT22;2271;49.464;11.070;2024-02-14T15:18:35;10.70;99.90
4518;DHT22;2271;49.464;11.070;2024-02-14T15:21:01;10.70;99.90
4518;DHT22;2271;49.464;11.070;2024-02-14T15:23:28;10.70;99.90
4518;DHT22;2271;49.464;11.070;2024-02-14T15:25:54;10.70;99.90
4518;DHT22;2271;49.464;11.070;2024-02-14T15:28:28;10.60;99.90
4518;DHT22;2271;49.464;11.070;2024-02-14T15:30:58;10.60;99.90
4518;DHT22;2271;49.464;11.070;2024-02-14T15:33:42;10.60;99.90
4518;DHT22;2271;49.464;11.070;2024-02-14T15:36:09;10.60;99.90
4518;DHT22;2271;49.464;11.070;2024-02-14T15:38:35;10.60;99.90
4518;DHT22;2271;49.464;11.070;2024-02-14T15:41:00;10.60;99.90
4518;DHT22;2271;49.464;11.070;2024-02-14T15:43:28;10.60;99.90
4518;DHT22;2271;49.464;11.070;2024-02-14T15:45:54;10.60;99.90
4518;DHT22;2271;49.464;11.070;2024-02-14T15:48:20;10.60;99.90
4518;DHT22;2271;49.464;11.070;2024-02-14T15:50:47;10.60;99.90
4518;DHT22;2271;49.464;11.070;2024-02-14T15:53:13;10.60;99.90